Latest Weather Observations for Roebourne Airport

IDW60801

Issued at 7:13 am WST Friday 19 August 2022 (issued every 10 minutes, with the page automatically refreshed every 10 minutes)

About weather observations | Map of weather stations | Latest weather observations for WA | Other Formats
Station Details ID: 004090 Name: ROEBOURNE AERO Lat: -20.76 Lon: 117.16 Height: 10.7 m
Data from the previous 72 hours. | See also: Recent months at Roebourne Airport
Date/Time
WST
Temp
°C
App
Temp
°C
Dew
Point
°C
Rel
Hum
%
Delta-T
°C
Wind Press
QNH
hPa
Press
MSL
hPa
Rain since
9am
mm
Dir  Spd
km/h
Gust
km/h
Spd
kts
Gust
kts
19/07:00am 17.9 12.3 1.0 32 7.5 ESE 20 24 11 13 1021.0 1020.9 0.0
19/06:30am 17.0 11.4 0.2 32 7.3 ESE 19 22 10 12 1020.5 1020.4 0.0
19/06:00am 17.9 12.1 -0.4 29 7.8 ESE 20 28 11 15 1019.9 1019.8 0.0
19/05:30am 18.3 12.1 -0.5 28 8.1 ESE 22 28 12 15 1019.5 1019.4 0.0
19/05:00am 19.0 12.0 -0.4 27 8.4 ESE 26 33 14 18 1019.1 1019.0 0.0
19/04:30am 18.7 12.1 -0.7 27 8.3 ESE 24 30 13 16 1018.9 1018.8 0.0
19/04:00am 18.5 12.2 -0.8 27 8.3 ESE 22 28 12 15 1018.7 1018.6 0.0
19/03:30am 18.7 12.8 -0.7 27 8.3 ESE 20 24 11 13 1018.7 1018.6 0.0
19/03:00am 19.3 13.4 -0.7 26 8.6 ESE 20 26 11 14 1018.6 1018.5 0.0
19/02:30am 19.7 13.9 0.2 27 8.6 ESE 20 26 11 14 1018.4 1018.3 0.0
19/02:00am 20.0 14.1 1.4 29 8.4 ESE 22 28 12 15 1018.4 1018.3 0.0
19/01:30am 19.5 14.7 4.8 38 7.1 ESE 19 26 10 14 1018.3 1018.2 0.0
19/01:00am 16.8 13.5 9.7 63 3.7 ESE 17 17 9 9 1018.6 1018.5 0.0
19/12:30am 17.2 14.2 9.4 60 4.1 ESE 15 17 8 9 1018.8 1018.7 0.0
19/12:00am 18.7 15.8 9.5 55 4.8 ESE 15 17 8 9 1018.7 1018.6 0.0
 
Date/Time
WST
Temp
°C
App
Temp
°C
Dew
Point
°C
Rel
Hum
%
Delta-T
°C
Wind Press
QNH
hPa
Press
MSL
hPa
Rain since
9am
mm
Dir  Spd
km/h
Gust
km/h
Spd
kts
Gust
kts
18/11:30pm 21.6 17.7 9.5 46 6.5 ESE 20 22 11 12 1018.6 1018.5 0.0
18/11:00pm 20.2 18.3 11.9 59 4.6 SSE 13 19 7 10 1018.7 1018.6 0.0
18/10:30pm 19.4 18.4 12.4 64 3.9 SW 9 11 5 6 1018.7 1018.6 0.0
18/10:00pm 19.3 17.7 12.8 66 3.7 SW 13 15 7 8 1018.6 1018.5 0.0
18/09:30pm 19.8 18.8 12.3 62 4.2 SSW 9 11 5 6 1018.5 1018.4 0.0
18/09:00pm 20.6 19.7 12.6 60 4.5 SW 9 11 5 6 1018.2 1018.1 0.0
18/08:30pm 22.0 21.4 13.4 58 5.0 WSW 9 13 5 7 1018.0 1017.9 0.0
18/08:00pm 22.4 21.3 13.2 56 5.3 WSW 11 13 6 7 1017.9 1017.8 0.0
18/07:30pm 23.0 21.9 10.8 46 6.8 W 7 9 4 5 1017.5 1017.4 0.0
18/07:00pm 23.6 22.0 10.3 43 7.3 WNW 9 11 5 6 1017.2 1017.1 0.0
18/06:30pm 24.4 22.8 11.7 45 7.2 NW 11 13 6 7 1016.8 1016.7 0.0
18/06:00pm 26.5 25.1 12.2 41 8.2 NW 11 15 6 8 1016.4 1016.3 0.0
18/05:30pm 28.9 26.8 9.6 30 10.8 N 11 15 6 8 1016.0 1015.9 0.0
18/05:00pm 29.6 27.1 9.7 29 11.2 N 13 17 7 9 1015.7 1015.6 0.0
18/04:30pm 30.2 27.7 9.7 28 11.5 NNE 13 19 7 10 1015.5 1015.4 0.0
18/04:00pm 30.6 27.8 10.0 28 11.7 NNE 15 20 8 11 1015.5 1015.4 0.0
18/03:30pm 30.4 27.2 9.8 28 11.6 NNE 17 22 9 12 1015.4 1015.3 0.0
18/03:00pm 30.5 27.5 9.4 27 11.8 NNE 15 20 8 11 1015.5 1015.4 0.0
18/02:30pm 30.5 27.2 9.4 27 11.8 NNE 17 24 9 13 1015.7 1015.6 0.0
18/02:00pm 30.3 26.9 9.2 27 11.8 NNE 17 20 9 11 1016.0 1015.9 0.0
18/01:30pm 29.7 25.8 9.3 28 11.4 NE 20 30 11 16 1016.2 1016.1 0.0
18/01:00pm 30.0 26.6 9.0 27 11.7 E 17 30 9 16 1016.5 1016.4 0.0
18/12:30pm 29.1 25.0 7.7 26 11.6 E 19 33 10 18 1016.9 1016.8 0.0
18/12:00pm 28.8 25.1 7.9 27 11.3 SE 17 26 9 14 1017.5 1017.4 0.0
18/11:30am 28.2 24.4 7.4 27 11.2 ESE 17 24 9 13 1017.8 1017.7 0.0
18/11:00am 27.6 24.7 8.0 29 10.6 ESE 13 22 7 12 1018.3 1018.2 0.0
18/10:30am 26.3 22.5 7.4 30 10.0 ESE 17 24 9 13 1018.5 1018.4 0.0
18/10:00am 25.4 21.6 7.5 32 9.4 ESE 17 22 9 12 1018.7 1018.6 0.0
18/09:30am 24.3 20.0 7.0 33 9.0 ESE 19 26 10 14 1018.8 1018.7 0.0
18/09:00am 23.5 19.6 7.2 35 8.5 E 17 24 9 13 1018.8 1018.7 0.0
18/08:30am 22.3 20.1 7.7 39 7.6 ESE 9 13 5 7 1018.7 1018.6 0.0
18/08:00am 20.6 18.9 8.3 45 6.4 ESE 7 9 4 5 1018.4 1018.3 0.0
18/07:30am 17.1 15.7 9.0 59 4.2 S 6 7 3 4 1018.3 1018.2 0.0
18/07:00am 14.5 12.7 7.1 61 3.6 SSW 6 7 3 4 1017.9 1017.8 0.0
18/06:30am 13.7 11.9 7.0 64 3.3 SSW 6 9 3 5 1017.4 1017.3 0.0
18/06:00am 13.7 11.6 6.6 62 3.4 SSW 7 9 4 5 1017.1 1017.0 0.0
18/05:30am 14.3 12.9 7.1 62 3.5 SW 4 7 2 4 1017.0 1016.9 0.0
18/05:00am 14.9 13.1 7.0 59 3.9 SW 6 9 3 5 1016.6 1016.5 0.0
18/04:30am 17.0 14.6 6.8 51 5.0 SW 9 13 5 7 1016.4 1016.3 0.0
18/04:00am 17.5 14.7 7.0 50 5.2 SW 11 15 6 8 1016.1 1016.0 0.0
18/03:30am 16.5 14.7 7.2 54 4.6 WSW 6 7 3 4 1016.0 1015.9 0.0
18/03:00am 16.9 15.1 7.0 52 4.9 WNW 6 7 3 4 1016.0 1015.9 0.0
18/02:30am 18.4 15.2 6.9 47 5.8 SSW 13 17 7 9 1016.3 1016.2 0.0
18/02:00am 18.6 14.6 6.8 46 5.9 SW 17 20 9 11 1016.3 1016.2 0.0
18/01:30am 19.3 14.8 7.1 45 6.2 SW 20 22 11 12 1016.6 1016.5 0.0
18/01:00am 19.5 15.2 6.9 44 6.3 SW 19 20 10 11 1016.9 1016.8 0.0
18/12:30am 20.1 16.2 7.1 43 6.6 SW 17 20 9 11 1017.0 1016.9 0.0
18/12:00am 21.0 17.1 6.9 40 7.2 SW 17 22 9 12 1017.2 1017.1 0.0
 
Date/Time
WST
Temp
°C
App
Temp
°C
Dew
Point
°C
Rel
Hum
%
Delta-T
°C
Wind Press
QNH
hPa
Press
MSL
hPa
Rain since
9am
mm
Dir  Spd
km/h
Gust
km/h
Spd
kts
Gust
kts
17/11:30pm 21.8 17.9 7.2 39 7.5 SW 17 22 9 12 1017.2 1017.1 0.0
17/11:00pm 22.5 18.8 7.9 39 7.6 SW 17 22 9 12 1017.3 1017.2 0.0
17/10:30pm 23.0 19.3 9.4 42 7.3 SW 19 24 10 13 1017.4 1017.3 0.0
17/10:00pm 23.8 20.5 11.5 46 6.9 SW 20 28 11 15 1017.4 1017.3 0.0
17/09:30pm 24.7 21.6 12.3 46 7.1 WSW 20 26 11 14 1017.3 1017.2 0.0
17/09:00pm 25.3 23.0 12.9 46 7.2 WSW 17 22 9 12 1017.2 1017.1 0.0
17/08:30pm 25.8 23.1 13.0 45 7.5 WSW 19 26 10 14 1016.8 1016.7 0.0
17/08:00pm 26.3 23.7 13.1 44 7.7 SW 19 24 10 13 1016.3 1016.2 0.0
17/07:30pm 27.1 24.6 13.4 42 8.1 SW 19 24 10 13 1016.0 1015.9 0.0
17/07:00pm 27.5 25.1 13.8 43 8.1 SW 19 24 10 13 1015.7 1015.6 0.0
17/06:30pm 28.3 25.8 14.2 42 8.5 WSW 20 26 11 14 1015.4 1015.3 0.0
17/06:00pm 29.1 26.7 14.5 41 8.8 WSW 20 32 11 17 1015.2 1015.1 0.0
17/05:30pm 30.2 27.4 14.3 38 9.6 WSW 22 30 12 16 1014.9 1014.8 0.0
17/05:00pm 30.9 28.3 14.9 37 9.8 WSW 22 32 12 17 1014.6 1014.5 0.0
17/04:30pm 31.5 29.3 15.0 36 10.1 WSW 20 33 11 18 1014.5 1014.4 0.0
17/04:00pm 32.3 30.4 15.3 35 10.5 WSW 19 26 10 14 1014.5 1014.4 0.0
17/03:30pm 32.0 30.0 15.5 37 10.2 WSW 20 28 11 15 1014.5 1014.4 0.0
17/03:00pm 31.3 29.6 15.7 39 9.7 W 19 28 10 15 1014.4 1014.3 0.0
17/02:30pm 32.4 30.7 16.3 38 10.1 WSW 20 28 11 15 1014.6 1014.5 0.0
17/02:00pm 31.8 29.9 15.7 37 10.0 WSW 20 28 11 15 1014.7 1014.6 0.0
17/01:30pm 32.1 31.2 16.8 40 9.7 SW 17 26 9 14 1015.1 1015.0 0.0
17/01:00pm 32.0 30.8 17.1 41 9.5 WSW 19 28 10 15 1015.6 1015.5 0.0
17/12:30pm 31.4 30.1 17.3 42 9.0 WSW 20 28 11 15 1016.0 1015.9 0.0
17/12:00pm 30.9 30.2 18.3 47 8.1 SSW 19 32 10 17 1016.4 1016.3 0.0
17/11:30am 30.4 29.1 18.2 48 7.8 SW 22 30 12 16 1016.8 1016.7 0.0
17/11:00am 29.3 28.5 18.4 51 7.0 SSW 20 28 11 15 1017.3 1017.2 0.0
17/10:30am 28.8 28.1 18.6 54 6.6 SSW 20 32 11 17 1017.6 1017.5 0.0
17/10:00am 27.9 26.9 18.9 58 5.8 SSW 22 28 12 15 1017.8 1017.7 0.0
17/09:30am 27.5 27.2 19.6 62 5.1 SW 20 30 11 16 1017.9 1017.8 0.0
17/09:00am 26.3 26.2 19.9 68 4.2 SW 20 26 11 14 1017.7 1017.6 0.0
17/08:30am 24.7 25.0 20.4 77 2.8 SSW 19 28 10 15 1017.5 1017.4 0.0
17/08:00am 22.8 24.6 21.8 94 0.7 SW 15 19 8 10 1017.3 1017.2 0.0
17/07:30am 21.7 24.6 21.7 100 0.0 SW 9 11 5 6 1017.0 1016.9 0.0
17/07:00am 20.5 22.7 20.5 100 0.0 SW 9 13 5 7 1016.7 1016.6 0.0
17/06:30am 20.2 22.3 20.2 100 0.0 SW 9 11 5 6 1016.4 1016.3 0.0
17/06:00am 19.7 21.2 19.7 100 0.0 SW 11 13 6 7 1016.2 1016.1 0.0
17/05:30am 19.6 21.4 19.6 100 0.0 SW 9 11 5 6 1015.9 1015.8 0.0
17/05:00am 21.2 23.4 21.2 100 0.0 SW 11 13 6 7 1015.5 1015.4 0.0
17/04:30am 21.3 23.2 21.3 100 0.0 WSW 13 15 7 8 1015.3 1015.2 0.0
17/04:00am 21.5 23.1 21.5 100 0.0 WSW 15 19 8 10 1015.2 1015.1 0.0
17/03:30am 21.7 23.8 21.7 100 0.0 WSW 13 17 7 9 1015.2 1015.1 0.0
17/03:00am 20.9 23.7 20.9 100 0.0 SW 7 13 4 7 1015.3 1015.2 0.0
17/02:30am 19.9 22.1 19.7 99 0.1 SSW 7 9 4 5 1015.4 1015.3 0.0
17/02:00am 19.8 21.7 19.8 100 0.0 SSW 9 13 5 7 1015.5 1015.4 0.0
17/01:30am 18.9 20.3 18.6 98 0.2 SSW 9 11 5 6 1015.5 1015.4 0.0
17/01:00am 18.9 20.5 18.2 96 0.4 SSW 7 9 4 5 1015.7 1015.6 0.0
17/12:30am 19.3 20.6 18.5 95 0.5 SSW 9 11 5 6 1015.9 1015.8 0.0
17/12:00am 19.1 21.8 17.8 92 0.8 CALM 0 0 0 0 1015.7 1015.6 0.0
 
Date/Time
WST
Temp
°C
App
Temp
°C
Dew
Point
°C
Rel
Hum
%
Delta-T
°C
Wind Press
QNH
hPa
Press
MSL
hPa
Rain since
9am
mm
Dir  Spd
km/h
Gust
km/h
Spd
kts
Gust
kts
16/11:30pm 19.2 21.3 17.3 89 1.2 WSW 2 7 1 4 1015.8 1015.7 0.0
16/11:00pm 21.0 23.2 19.7 92 0.8 WSW 7 11 4 6 1016.0 1015.9 0.0
16/10:30pm 20.6 23.1 19.1 91 0.9 W 4 7 2 4 1016.1 1016.0 0.0
16/10:00pm 21.0 22.7 19.3 90 1.1 NW 9 9 5 5 1016.2 1016.1 0.0
16/09:30pm 21.3 22.9 19.2 88 1.3 NW 9 11 5 6 1016.2 1016.1 0.0
16/09:00pm 21.9 23.7 19.6 87 1.5 NW 9 11 5 6 1016.1 1016.0 0.0
16/08:30pm 22.6 24.7 20.1 86 1.6 WNW 9 13 5 7 1016.1 1016.0 0.0
16/08:00pm 21.8 23.2 19.5 87 1.5 NW 11 11 6 6 1015.8 1015.7 0.0
16/07:30pm 22.4 23.8 19.6 84 1.8 NNW 11 13 6 7 1015.4 1015.3 0.0
16/07:00pm 22.9 25.4 19.9 83 1.9 N 6 9 3 5 1015.1 1015.0 0.0
16/06:30pm 23.5 25.1 20.0 81 2.3 NNW 11 15 6 8 1014.9 1014.8 0.0
16/06:00pm 24.6 25.6 20.3 77 2.8 N 15 19 8 10 1014.6 1014.5 0.0
16/05:30pm 26.2 27.2 20.3 70 3.9 NNW 15 19 8 10 1014.3 1014.2 0.0
16/05:00pm 27.2 27.5 19.5 62 5.0 N 17 20 9 11 1014.2 1014.1 0.0
16/04:30pm 28.2 28.0 19.4 59 5.7 N 19 22 10 12 1014.0 1013.9 0.0
16/04:00pm 29.6 29.2 18.1 50 7.4 NNW 17 20 9 11 1013.9 1013.8 0.0
16/03:30pm 30.4 29.3 16.4 43 8.8 NNW 17 24 9 13 1013.8 1013.7 0.0
16/03:00pm 30.0 29.4 17.5 47 7.9 NNW 17 26 9 14 1013.7 1013.6 0.0
16/02:30pm 29.9 29.6 17.4 47 7.9 NNW 15 22 8 12 1013.7 1013.6 0.0
16/02:00pm 29.2 28.1 19.5 56 6.3 NNE 24 32 13 17 1013.8 1013.7 0.0
16/01:30pm 29.0 27.9 18.7 53 6.6 NNE 22 28 12 15 1014.1 1014.0 0.0
16/01:00pm 29.9 29.5 19.0 52 7.1 NNE 19 26 10 14 1014.4 1014.3 0.0
16/12:30pm 29.8 30.4 18.6 51 7.2 N 13 20 7 11 1014.8 1014.7 0.0
16/12:00pm 28.8 29.4 18.6 54 6.6 N 13 19 7 10 1015.2 1015.1 0.0
16/11:30am 28.8 29.4 18.6 54 6.6 NNE 13 17 7 9 1015.5 1015.4 0.0
16/11:00am 28.4 29.3 16.7 49 7.3 NNW 7 11 4 6 1015.8 1015.7 0.0
16/10:30am 27.8 28.2 16.4 50 7.1 NNE 9 13 5 7 1016.1 1016.0 0.0
16/10:00am 26.9 27.8 16.5 53 6.4 NNE 7 11 4 6 1016.3 1016.2 0.0
16/09:30am 26.1 26.9 16.4 55 6.0 ENE 7 13 4 7 1016.3 1016.2 0.0
16/09:00am 25.2 25.3 16.6 59 5.3 ENE 11 13 6 7 1016.2 1016.1 0.0
16/08:30am 23.2 24.0 17.4 70 3.6 ENE 9 13 5 7 1016.1 1016.0 0.0
16/08:00am 21.4 23.9 17.2 77 2.6 CALM 0 6 0 3 1015.7 1015.6 0.0
16/07:30am 18.3 19.6 16.1 87 1.3 NE 4 6 2 3 1015.3 1015.2 0.0

Other formats

Comma delimited format used in spreadsheet applications
http://www.bom.gov.au/fwo/IDW60801/IDW60801.94308.axf

JavaScript Object Notation format (JSON) in row-major order
http://www.bom.gov.au/fwo/IDW60801/IDW60801.94308.json

Data quality

Most of these data are generated automatically and are frequently updated. Quality checks on data are not normally performed. It is possible for incorrect values to appear. Refer to information at About Latest Weather Observations and please check the disclaimer before using these data.